Terminal Aerodrome Forecast
Issued by NWS Jackson, KY

Home | Current Version | Previous Version | Text Only | Print | Product List | Glossary On
Versions: 1 2 3 4 5 6 7 8 9 10 11 12 13 14 15
267
FTUS43 KJKL 291739
TAFJKL
TAF
KJKL 291739Z 2918/3018 VRB06KT P6SM VCSH BKN040
     FM292200 VRB03KT P6SM SCT003 BKN040
     FM300800 00000KT 2SM BR SCT003
     FM301400 VRB06KT P6SM SCT050=

USA.gov is the U.S. government's official web portal to all federal, state and local government web resources and services.